sensor_id;sensor_type;location;lat;lon;timestamp;P1;durP1;ratioP1;P2;durP2;ratioP2
36575;SDS011;45700;50.930;5.168;2023-08-17T00:01:20;4.28;;;1.77;;
36575;SDS011;45700;50.930;5.168;2023-08-17T00:05:21;2.28;;;1.63;;
36575;SDS011;45700;50.930;5.168;2023-08-17T00:09:22;4.05;;;1.92;;
36575;SDS011;45700;50.930;5.168;2023-08-17T00:13:24;4.68;;;1.85;;
36575;SDS011;45700;50.930;5.168;2023-08-17T00:17:25;2.60;;;1.67;;
36575;SDS011;45700;50.930;5.168;2023-08-17T00:21:26;3.28;;;1.77;;
36575;SDS011;45700;50.930;5.168;2023-08-17T00:25:27;4.72;;;1.85;;
36575;SDS011;45700;50.930;5.168;2023-08-17T00:29:28;2.72;;;1.70;;
36575;SDS011;45700;50.930;5.168;2023-08-17T00:33:29;3.15;;;1.70;;
36575;SDS011;45700;50.930;5.168;2023-08-17T00:37:30;3.58;;;2.10;;
36575;SDS011;45700;50.930;5.168;2023-08-17T00:41:31;3.97;;;1.80;;
36575;SDS011;45700;50.930;5.168;2023-08-17T00:45:32;4.75;;;2.08;;
36575;SDS011;45700;50.930;5.168;2023-08-17T00:49:33;3.50;;;2.08;;
36575;SDS011;45700;50.930;5.168;2023-08-17T00:53:35;2.50;;;1.58;;
36575;SDS011;45700;50.930;5.168;2023-08-17T00:57:36;3.70;;;1.58;;
36575;SDS011;45700;50.930;5.168;2023-08-17T01:01:37;2.28;;;1.50;;
36575;SDS011;45700;50.930;5.168;2023-08-17T01:05:38;4.18;;;2.10;;
36575;SDS011;45700;50.930;5.168;2023-08-17T01:09:39;4.07;;;2.00;;
36575;SDS011;45700;50.930;5.168;2023-08-17T01:17:51;2.53;;;1.55;;
36575;SDS011;45700;50.930;5.168;2023-08-17T01:22:26;3.22;;;1.70;;
36575;SDS011;45700;50.930;5.168;2023-08-17T01:26:20;3.67;;;1.55;;
36575;SDS011;45700;50.930;5.168;2023-08-17T01:30:21;2.42;;;2.00;;
36575;SDS011;45700;50.930;5.168;2023-08-17T01:34:22;1.65;;;1.48;;
36575;SDS011;45700;50.930;5.168;2023-08-17T01:38:24;1.90;;;1.60;;
36575;SDS011;45700;50.930;5.168;2023-08-17T01:42:26;6.43;;;1.90;;
36575;SDS011;45700;50.930;5.168;2023-08-17T01:46:31;3.38;;;1.52;;
36575;SDS011;45700;50.930;5.168;2023-08-17T01:50:32;5.00;;;1.80;;
36575;SDS011;45700;50.930;5.168;2023-08-17T01:54:33;4.72;;;1.80;;
36575;SDS011;45700;50.930;5.168;2023-08-17T01:58:34;2.97;;;1.33;;
36575;SDS011;45700;50.930;5.168;2023-08-17T02:02:35;3.50;;;1.52;;
36575;SDS011;45700;50.930;5.168;2023-08-17T02:06:36;4.88;;;1.77;;
36575;SDS011;45700;50.930;5.168;2023-08-17T02:10:37;2.03;;;1.30;;
36575;SDS011;45700;50.930;5.168;2023-08-17T02:14:38;5.18;;;2.00;;
36575;SDS011;45700;50.930;5.168;2023-08-17T02:18:39;4.32;;;1.90;;
36575;SDS011;45700;50.930;5.168;2023-08-17T02:22:40;3.45;;;1.63;;
36575;SDS011;45700;50.930;5.168;2023-08-17T02:26:41;2.58;;;1.70;;
36575;SDS011;45700;50.930;5.168;2023-08-17T02:30:43;4.93;;;1.83;;
36575;SDS011;45700;50.930;5.168;2023-08-17T02:34:44;4.25;;;1.90;;
36575;SDS011;45700;50.930;5.168;2023-08-17T02:38:45;3.00;;;1.60;;
36575;SDS011;45700;50.930;5.168;2023-08-17T02:42:46;5.75;;;1.77;;
36575;SDS011;45700;50.930;5.168;2023-08-17T02:46:47;4.00;;;2.08;;
36575;SDS011;45700;50.930;5.168;2023-08-17T02:50:48;3.92;;;2.03;;
36575;SDS011;45700;50.930;5.168;2023-08-17T02:54:49;3.28;;;2.10;;
36575;SDS011;45700;50.930;5.168;2023-08-17T02:58:50;3.97;;;1.90;;
36575;SDS011;45700;50.930;5.168;2023-08-17T03:02:51;5.47;;;1.80;;
36575;SDS011;45700;50.930;5.168;2023-08-17T03:06:53;6.53;;;2.10;;
36575;SDS011;45700;50.930;5.168;2023-08-17T03:10:54;3.00;;;2.05;;
36575;SDS011;45700;50.930;5.168;2023-08-17T03:14:55;5.85;;;2.45;;
36575;SDS011;45700;50.930;5.168;2023-08-17T03:18:56;2.33;;;1.92;;
36575;SDS011;45700;50.930;5.168;2023-08-17T03:22:57;4.47;;;1.70;;
36575;SDS011;45700;50.930;5.168;2023-08-17T03:26:58;3.05;;;1.92;;
36575;SDS011;45700;50.930;5.168;2023-08-17T03:30:59;2.22;;;1.70;;
36575;SDS011;45700;50.930;5.168;2023-08-17T03:35:00;2.50;;;1.80;;
36575;SDS011;45700;50.930;5.168;2023-08-17T03:39:01;1.80;;;1.60;;
36575;SDS011;45700;50.930;5.168;2023-08-17T03:43:02;4.40;;;1.98;;
36575;SDS011;45700;50.930;5.168;2023-08-17T03:47:04;7.85;;;2.35;;
36575;SDS011;45700;50.930;5.168;2023-08-17T03:51:05;3.58;;;1.92;;
36575;SDS011;45700;50.930;5.168;2023-08-17T03:55:06;2.22;;;1.70;;
36575;SDS011;45700;50.930;5.168;2023-08-17T03:59:07;7.53;;;1.88;;
36575;SDS011;45700;50.930;5.168;2023-08-17T04:03:08;2.38;;;1.70;;
36575;SDS011;45700;50.930;5.168;2023-08-17T04:07:09;3.05;;;2.00;;
36575;SDS011;45700;50.930;5.168;2023-08-17T04:11:10;4.05;;;1.90;;
36575;SDS011;45700;50.930;5.168;2023-08-17T04:15:11;3.95;;;2.00;;
36575;SDS011;45700;50.930;5.168;2023-08-17T04:19:12;3.47;;;2.25;;
36575;SDS011;45700;50.930;5.168;2023-08-17T04:23:14;4.03;;;2.40;;
36575;SDS011;45700;50.930;5.168;2023-08-17T04:27:15;4.88;;;2.63;;
36575;SDS011;45700;50.930;5.168;2023-08-17T04:31:17;3.28;;;2.33;;
36575;SDS011;45700;50.930;5.168;2023-08-17T04:35:18;5.78;;;2.65;;
36575;SDS011;45700;50.930;5.168;2023-08-17T04:39:19;4.05;;;2.50;;
36575;SDS011;45700;50.930;5.168;2023-08-17T04:43:20;2.58;;;2.22;;
36575;SDS011;45700;50.930;5.168;2023-08-17T04:47:21;4.65;;;2.15;;
36575;SDS011;45700;50.930;5.168;2023-08-17T04:51:22;5.03;;;2.95;;
36575;SDS011;45700;50.930;5.168;2023-08-17T04:55:23;6.50;;;2.65;;
36575;SDS011;45700;50.930;5.168;2023-08-17T04:59:24;5.25;;;2.90;;
36575;SDS011;45700;50.930;5.168;2023-08-17T05:03:25;4.22;;;2.78;;
36575;SDS011;45700;50.930;5.168;2023-08-17T05:07:26;6.75;;;2.70;;
36575;SDS011;45700;50.930;5.168;2023-08-17T05:11:27;3.08;;;2.20;;
36575;SDS011;45700;50.930;5.168;2023-08-17T05:15:28;3.35;;;2.47;;
36575;SDS011;45700;50.930;5.168;2023-08-17T05:19:29;9.38;;;2.83;;
36575;SDS011;45700;50.930;5.168;2023-08-17T05:23:30;3.80;;;2.13;;
36575;SDS011;45700;50.930;5.168;2023-08-17T05:27:31;7.00;;;2.22;;
36575;SDS011;45700;50.930;5.168;2023-08-17T05:31:32;7.13;;;2.58;;
36575;SDS011;45700;50.930;5.168;2023-08-17T05:35:33;7.38;;;2.67;;
36575;SDS011;45700;50.930;5.168;2023-08-17T05:39:34;8.20;;;2.28;;
36575;SDS011;45700;50.930;5.168;2023-08-17T05:43:35;6.50;;;2.40;;
36575;SDS011;45700;50.930;5.168;2023-08-17T05:47:36;4.20;;;2.90;;
36575;SDS011;45700;50.930;5.168;2023-08-17T05:51:37;6.35;;;2.67;;
36575;SDS011;45700;50.930;5.168;2023-08-17T05:55:38;6.05;;;3.22;;
36575;SDS011;45700;50.930;5.168;2023-08-17T05:59:39;10.20;;;2.42;;
36575;SDS011;45700;50.930;5.168;2023-08-17T06:03:40;6.93;;;2.63;;
36575;SDS011;45700;50.930;5.168;2023-08-17T06:07:42;7.22;;;2.38;;
36575;SDS011;45700;50.930;5.168;2023-08-17T06:11:43;3.53;;;2.63;;
36575;SDS011;45700;50.930;5.168;2023-08-17T06:15:44;3.75;;;2.30;;
36575;SDS011;45700;50.930;5.168;2023-08-17T06:19:45;6.18;;;2.95;;
36575;SDS011;45700;50.930;5.168;2023-08-17T06:23:46;6.97;;;3.22;;
36575;SDS011;45700;50.930;5.168;2023-08-17T06:27:48;8.18;;;2.92;;
36575;SDS011;45700;50.930;5.168;2023-08-17T06:31:49;5.88;;;2.90;;
36575;SDS011;45700;50.930;5.168;2023-08-17T06:35:50;4.72;;;2.67;;
36575;SDS011;45700;50.930;5.168;2023-08-17T06:39:51;6.57;;;2.75;;
36575;SDS011;45700;50.930;5.168;2023-08-17T06:43:52;4.78;;;2.95;;
36575;SDS011;45700;50.930;5.168;2023-08-17T06:47:53;8.70;;;3.92;;
36575;SDS011;45700;50.930;5.168;2023-08-17T06:51:54;7.60;;;3.25;;
36575;SDS011;45700;50.930;5.168;2023-08-17T06:55:55;8.32;;;3.53;;
36575;SDS011;45700;50.930;5.168;2023-08-17T06:59:56;8.95;;;3.85;;
36575;SDS011;45700;50.930;5.168;2023-08-17T07:03:57;13.00;;;4.05;;
36575;SDS011;45700;50.930;5.168;2023-08-17T07:07:58;8.80;;;3.40;;
36575;SDS011;45700;50.930;5.168;2023-08-17T07:11:59;11.43;;;3.75;;
36575;SDS011;45700;50.930;5.168;2023-08-17T07:16:00;8.25;;;4.30;;
36575;SDS011;45700;50.930;5.168;2023-08-17T07:20:02;9.13;;;4.13;;
36575;SDS011;45700;50.930;5.168;2023-08-17T07:24:13;6.85;;;3.80;;
36575;SDS011;45700;50.930;5.168;2023-08-17T07:28:14;9.82;;;4.28;;
36575;SDS011;45700;50.930;5.168;2023-08-17T07:32:15;11.73;;;4.55;;
36575;SDS011;45700;50.930;5.168;2023-08-17T07:36:16;13.48;;;4.60;;
36575;SDS011;45700;50.930;5.168;2023-08-17T07:40:17;13.32;;;5.40;;
36575;SDS011;45700;50.930;5.168;2023-08-17T07:44:18;11.25;;;4.78;;
36575;SDS011;45700;50.930;5.168;2023-08-17T07:48:19;13.40;;;5.53;;
36575;SDS011;45700;50.930;5.168;2023-08-17T07:52:20;10.40;;;4.90;;
36575;SDS011;45700;50.930;5.168;2023-08-17T07:56:21;11.90;;;5.20;;
36575;SDS011;45700;50.930;5.168;2023-08-17T08:00:22;23.40;;;5.63;;
36575;SDS011;45700;50.930;5.168;2023-08-17T08:04:23;17.67;;;5.15;;
36575;SDS011;45700;50.930;5.168;2023-08-17T08:08:24;16.75;;;6.07;;
36575;SDS011;45700;50.930;5.168;2023-08-17T08:12:25;13.30;;;5.75;;
36575;SDS011;45700;50.930;5.168;2023-08-17T08:16:27;14.55;;;5.60;;
36575;SDS011;45700;50.930;5.168;2023-08-17T08:20:30;22.90;;;6.90;;
36575;SDS011;45700;50.930;5.168;2023-08-17T08:24:31;22.80;;;6.65;;
36575;SDS011;45700;50.930;5.168;2023-08-17T08:28:34;16.65;;;6.63;;
36575;SDS011;45700;50.930;5.168;2023-08-17T08:32:35;19.30;;;7.30;;
36575;SDS011;45700;50.930;5.168;2023-08-17T08:36:36;21.08;;;6.38;;
36575;SDS011;45700;50.930;5.168;2023-08-17T08:40:37;15.30;;;6.07;;
36575;SDS011;45700;50.930;5.168;2023-08-17T08:44:41;16.60;;;7.45;;
36575;SDS011;45700;50.930;5.168;2023-08-17T08:48:42;18.25;;;6.32;;
36575;SDS011;45700;50.930;5.168;2023-08-17T08:52:49;17.58;;;6.30;;
36575;SDS011;45700;50.930;5.168;2023-08-17T08:56:54;17.55;;;6.60;;
36575;SDS011;45700;50.930;5.168;2023-08-17T09:00:59;21.05;;;6.93;;
36575;SDS011;45700;50.930;5.168;2023-08-17T09:05:01;17.33;;;6.53;;
36575;SDS011;45700;50.930;5.168;2023-08-17T09:09:03;19.33;;;8.10;;
36575;SDS011;45700;50.930;5.168;2023-08-17T09:13:04;18.85;;;7.47;;
36575;SDS011;45700;50.930;5.168;2023-08-17T09:17:05;19.23;;;8.20;;
36575;SDS011;45700;50.930;5.168;2023-08-17T09:21:06;20.15;;;7.82;;
36575;SDS011;45700;50.930;5.168;2023-08-17T09:25:08;21.35;;;8.43;;
36575;SDS011;45700;50.930;5.168;2023-08-17T09:29:21;19.05;;;8.40;;
36575;SDS011;45700;50.930;5.168;2023-08-17T09:33:23;16.20;;;8.02;;
36575;SDS011;45700;50.930;5.168;2023-08-17T09:37:26;18.55;;;7.10;;
36575;SDS011;45700;50.930;5.168;2023-08-17T09:41:27;14.10;;;7.63;;
36575;SDS011;45700;50.930;5.168;2023-08-17T09:45:29;15.88;;;8.27;;
36575;SDS011;45700;50.930;5.168;2023-08-17T09:49:31;15.85;;;7.82;;
36575;SDS011;45700;50.930;5.168;2023-08-17T09:53:36;18.60;;;8.75;;
36575;SDS011;45700;50.930;5.168;2023-08-17T09:57:37;21.33;;;9.57;;
36575;SDS011;45700;50.930;5.168;2023-08-17T10:01:39;20.38;;;9.60;;
36575;SDS011;45700;50.930;5.168;2023-08-17T10:05:40;16.35;;;8.38;;
36575;SDS011;45700;50.930;5.168;2023-08-17T10:09:43;17.02;;;9.48;;
36575;SDS011;45700;50.930;5.168;2023-08-17T10:13:52;17.77;;;9.25;;
36575;SDS011;45700;50.930;5.168;2023-08-17T10:18:07;16.38;;;9.30;;
36575;SDS011;45700;50.930;5.168;2023-08-17T10:22:12;21.88;;;8.80;;
36575;SDS011;45700;50.930;5.168;2023-08-17T10:26:15;18.38;;;8.43;;
36575;SDS011;45700;50.930;5.168;2023-08-17T10:30:16;20.85;;;8.20;;
36575;SDS011;45700;50.930;5.168;2023-08-17T10:34:17;18.70;;;9.10;;
36575;SDS011;45700;50.930;5.168;2023-08-17T10:38:19;18.23;;;8.77;;
36575;SDS011;45700;50.930;5.168;2023-08-17T10:42:53;21.13;;;8.52;;
36575;SDS011;45700;50.930;5.168;2023-08-17T10:46:47;25.08;;;9.60;;
36575;SDS011;45700;50.930;5.168;2023-08-17T10:51:01;18.73;;;8.52;;
36575;SDS011;45700;50.930;5.168;2023-08-17T10:55:07;18.98;;;8.52;;
36575;SDS011;45700;50.930;5.168;2023-08-17T10:59:18;17.73;;;9.13;;
36575;SDS011;45700;50.930;5.168;2023-08-17T11:03:25;21.35;;;10.02;;
36575;SDS011;45700;50.930;5.168;2023-08-17T11:07:29;22.02;;;9.02;;
36575;SDS011;45700;50.930;5.168;2023-08-17T11:11:39;19.10;;;9.48;;
36575;SDS011;45700;50.930;5.168;2023-08-17T11:15:43;21.63;;;8.63;;
36575;SDS011;45700;50.930;5.168;2023-08-17T11:19:44;24.30;;;9.88;;
36575;SDS011;45700;50.930;5.168;2023-08-17T11:23:45;22.00;;;9.10;;
36575;SDS011;45700;50.930;5.168;2023-08-17T11:27:46;17.17;;;8.00;;
36575;SDS011;45700;50.930;5.168;2023-08-17T11:31:49;15.07;;;7.70;;
36575;SDS011;45700;50.930;5.168;2023-08-17T11:35:50;21.40;;;8.15;;
36575;SDS011;45700;50.930;5.168;2023-08-17T11:39:52;21.13;;;8.88;;
36575;SDS011;45700;50.930;5.168;2023-08-17T11:43:54;21.00;;;9.52;;
36575;SDS011;45700;50.930;5.168;2023-08-17T11:47:55;21.58;;;8.95;;
36575;SDS011;45700;50.930;5.168;2023-08-17T11:51:56;17.85;;;8.23;;
36575;SDS011;45700;50.930;5.168;2023-08-17T11:55:57;18.35;;;10.30;;
36575;SDS011;45700;50.930;5.168;2023-08-17T11:59:59;21.33;;;10.30;;
36575;SDS011;45700;50.930;5.168;2023-08-17T12:04:03;20.05;;;9.10;;
36575;SDS011;45700;50.930;5.168;2023-08-17T12:08:07;20.08;;;9.23;;
36575;SDS011;45700;50.930;5.168;2023-08-17T12:12:08;24.42;;;9.25;;
36575;SDS011;45700;50.930;5.168;2023-08-17T12:16:16;22.55;;;10.20;;
36575;SDS011;45700;50.930;5.168;2023-08-17T12:20:21;24.00;;;9.45;;
36575;SDS011;45700;50.930;5.168;2023-08-17T12:24:25;23.02;;;9.57;;
36575;SDS011;45700;50.930;5.168;2023-08-17T12:28:26;27.10;;;9.38;;
36575;SDS011;45700;50.930;5.168;2023-08-17T12:32:27;23.33;;;10.13;;
36575;SDS011;45700;50.930;5.168;2023-08-17T12:36:28;17.88;;;8.85;;
36575;SDS011;45700;50.930;5.168;2023-08-17T12:40:29;19.52;;;8.55;;
36575;SDS011;45700;50.930;5.168;2023-08-17T12:44:31;19.55;;;9.60;;
36575;SDS011;45700;50.930;5.168;2023-08-17T12:48:32;24.67;;;8.80;;
36575;SDS011;45700;50.930;5.168;2023-08-17T12:52:34;17.08;;;9.43;;
36575;SDS011;45700;50.930;5.168;2023-08-17T12:56:35;18.13;;;9.13;;
36575;SDS011;45700;50.930;5.168;2023-08-17T13:00:36;20.52;;;9.13;;
36575;SDS011;45700;50.930;5.168;2023-08-17T13:04:37;24.52;;;9.32;;
36575;SDS011;45700;50.930;5.168;2023-08-17T13:08:38;19.08;;;9.10;;
36575;SDS011;45700;50.930;5.168;2023-08-17T13:12:39;21.48;;;9.25;;
36575;SDS011;45700;50.930;5.168;2023-08-17T13:16:40;23.73;;;9.77;;
36575;SDS011;45700;50.930;5.168;2023-08-17T13:20:41;16.70;;;8.43;;
36575;SDS011;45700;50.930;5.168;2023-08-17T13:24:42;20.23;;;9.65;;
36575;SDS011;45700;50.930;5.168;2023-08-17T13:28:43;22.85;;;9.00;;
36575;SDS011;45700;50.930;5.168;2023-08-17T13:32:44;15.75;;;8.00;;
36575;SDS011;45700;50.930;5.168;2023-08-17T13:36:45;18.85;;;9.40;;
36575;SDS011;45700;50.930;5.168;2023-08-17T13:40:46;21.55;;;9.07;;
36575;SDS011;45700;50.930;5.168;2023-08-17T13:44:47;20.67;;;8.43;;
36575;SDS011;45700;50.930;5.168;2023-08-17T13:48:48;17.50;;;8.60;;
36575;SDS011;45700;50.930;5.168;2023-08-17T13:52:49;22.20;;;10.32;;
36575;SDS011;45700;50.930;5.168;2023-08-17T13:56:51;19.27;;;8.60;;
36575;SDS011;45700;50.930;5.168;2023-08-17T14:00:52;20.23;;;8.88;;
36575;SDS011;45700;50.930;5.168;2023-08-17T14:04:53;15.95;;;8.13;;
36575;SDS011;45700;50.930;5.168;2023-08-17T14:08:54;22.83;;;9.60;;
36575;SDS011;45700;50.930;5.168;2023-08-17T14:12:55;19.35;;;8.68;;
36575;SDS011;45700;50.930;5.168;2023-08-17T14:16:56;17.42;;;7.43;;
36575;SDS011;45700;50.930;5.168;2023-08-17T14:20:57;19.17;;;9.20;;
36575;SDS011;45700;50.930;5.168;2023-08-17T14:24:58;17.10;;;8.45;;
36575;SDS011;45700;50.930;5.168;2023-08-17T14:28:59;17.63;;;8.02;;
36575;SDS011;45700;50.930;5.168;2023-08-17T14:33:00;18.02;;;8.80;;
36575;SDS011;45700;50.930;5.168;2023-08-17T14:37:01;19.08;;;8.70;;
36575;SDS011;45700;50.930;5.168;2023-08-17T14:41:02;19.75;;;8.50;;
36575;SDS011;45700;50.930;5.168;2023-08-17T14:45:04;18.40;;;8.93;;
36575;SDS011;45700;50.930;5.168;2023-08-17T14:49:05;17.40;;;8.07;;
36575;SDS011;45700;50.930;5.168;2023-08-17T14:53:06;24.48;;;8.48;;
36575;SDS011;45700;50.930;5.168;2023-08-17T14:57:07;20.52;;;9.25;;
36575;SDS011;45700;50.930;5.168;2023-08-17T15:01:08;24.08;;;10.30;;
36575;SDS011;45700;50.930;5.168;2023-08-17T15:05:09;24.33;;;10.93;;
36575;SDS011;45700;50.930;5.168;2023-08-17T15:09:11;24.10;;;9.18;;
36575;SDS011;45700;50.930;5.168;2023-08-17T15:13:12;21.83;;;10.32;;
36575;SDS011;45700;50.930;5.168;2023-08-17T15:17:13;23.58;;;9.45;;
36575;SDS011;45700;50.930;5.168;2023-08-17T15:21:14;24.90;;;11.23;;
36575;SDS011;45700;50.930;5.168;2023-08-17T15:25:15;22.70;;;9.77;;
36575;SDS011;45700;50.930;5.168;2023-08-17T15:29:16;22.70;;;10.27;;
36575;SDS011;45700;50.930;5.168;2023-08-17T15:33:17;25.70;;;10.43;;
36575;SDS011;45700;50.930;5.168;2023-08-17T15:37:18;24.23;;;9.57;;
36575;SDS011;45700;50.930;5.168;2023-08-17T15:41:19;21.25;;;9.88;;
36575;SDS011;45700;50.930;5.168;2023-08-17T15:45:20;36.13;;;11.27;;
36575;SDS011;45700;50.930;5.168;2023-08-17T15:49:21;22.05;;;9.90;;
36575;SDS011;45700;50.930;5.168;2023-08-17T15:53:22;25.38;;;10.02;;
36575;SDS011;45700;50.930;5.168;2023-08-17T15:57:23;24.50;;;10.30;;
36575;SDS011;45700;50.930;5.168;2023-08-17T16:01:24;20.38;;;9.20;;
36575;SDS011;45700;50.930;5.168;2023-08-17T16:05:25;26.40;;;9.40;;
36575;SDS011;45700;50.930;5.168;2023-08-17T16:09:26;24.98;;;10.65;;
36575;SDS011;45700;50.930;5.168;2023-08-17T16:13:27;26.65;;;11.52;;
36575;SDS011;45700;50.930;5.168;2023-08-17T16:17:29;22.33;;;9.05;;
36575;SDS011;45700;50.930;5.168;2023-08-17T16:21:30;26.05;;;10.95;;
36575;SDS011;45700;50.930;5.168;2023-08-17T16:25:31;25.13;;;9.77;;
36575;SDS011;45700;50.930;5.168;2023-08-17T16:29:33;22.92;;;9.68;;
36575;SDS011;45700;50.930;5.168;2023-08-17T16:33:34;25.23;;;9.77;;
36575;SDS011;45700;50.930;5.168;2023-08-17T16:37:36;24.38;;;10.65;;
36575;SDS011;45700;50.930;5.168;2023-08-17T16:41:37;24.58;;;10.32;;
36575;SDS011;45700;50.930;5.168;2023-08-17T16:45:38;23.10;;;10.23;;
36575;SDS011;45700;50.930;5.168;2023-08-17T16:49:39;19.92;;;9.48;;
36575;SDS011;45700;50.930;5.168;2023-08-17T16:53:40;21.98;;;10.02;;
36575;SDS011;45700;50.930;5.168;2023-08-17T16:57:49;20.90;;;10.07;;
36575;SDS011;45700;50.930;5.168;2023-08-17T17:01:51;26.58;;;11.55;;
36575;SDS011;45700;50.930;5.168;2023-08-17T17:05:52;24.73;;;11.32;;
36575;SDS011;45700;50.930;5.168;2023-08-17T17:09:53;25.27;;;11.32;;
36575;SDS011;45700;50.930;5.168;2023-08-17T17:13:55;21.75;;;10.15;;
36575;SDS011;45700;50.930;5.168;2023-08-17T17:17:56;30.75;;;11.45;;
36575;SDS011;45700;50.930;5.168;2023-08-17T17:21:58;24.02;;;11.30;;
36575;SDS011;45700;50.930;5.168;2023-08-17T17:25:59;29.30;;;11.85;;
36575;SDS011;45700;50.930;5.168;2023-08-17T17:30:07;27.77;;;11.52;;
36575;SDS011;45700;50.930;5.168;2023-08-17T17:34:09;30.92;;;12.43;;
36575;SDS011;45700;50.930;5.168;2023-08-17T17:38:10;31.48;;;11.18;;
36575;SDS011;45700;50.930;5.168;2023-08-17T17:42:13;28.92;;;12.18;;
36575;SDS011;45700;50.930;5.168;2023-08-17T17:46:14;30.17;;;12.77;;
36575;SDS011;45700;50.930;5.168;2023-08-17T17:50:15;29.63;;;12.15;;
36575;SDS011;45700;50.930;5.168;2023-08-17T17:54:16;33.22;;;13.90;;
36575;SDS011;45700;50.930;5.168;2023-08-17T17:58:17;32.13;;;12.88;;
36575;SDS011;45700;50.930;5.168;2023-08-17T18:02:23;30.23;;;11.90;;
36575;SDS011;45700;50.930;5.168;2023-08-17T18:06:24;26.33;;;11.25;;
36575;SDS011;45700;50.930;5.168;2023-08-17T18:10:25;29.30;;;12.57;;
36575;SDS011;45700;50.930;5.168;2023-08-17T18:14:26;30.75;;;12.88;;
36575;SDS011;45700;50.930;5.168;2023-08-17T18:18:27;26.55;;;12.95;;
36575;SDS011;45700;50.930;5.168;2023-08-17T18:22:28;31.70;;;13.88;;
36575;SDS011;45700;50.930;5.168;2023-08-17T18:26:29;32.70;;;15.40;;
36575;SDS011;45700;50.930;5.168;2023-08-17T18:30:30;32.33;;;14.82;;
36575;SDS011;45700;50.930;5.168;2023-08-17T18:34:31;37.05;;;14.95;;
36575;SDS011;45700;50.930;5.168;2023-08-17T18:38:32;34.75;;;15.77;;
36575;SDS011;45700;50.930;5.168;2023-08-17T18:42:33;30.98;;;14.43;;
36575;SDS011;45700;50.930;5.168;2023-08-17T18:46:34;42.70;;;15.88;;
36575;SDS011;45700;50.930;5.168;2023-08-17T18:50:35;38.75;;;16.30;;
36575;SDS011;45700;50.930;5.168;2023-08-17T18:54:36;36.72;;;15.05;;
36575;SDS011;45700;50.930;5.168;2023-08-17T18:58:37;33.92;;;14.48;;
36575;SDS011;45700;50.930;5.168;2023-08-17T19:02:39;36.45;;;15.10;;
36575;SDS011;45700;50.930;5.168;2023-08-17T19:06:40;37.67;;;14.25;;
36575;SDS011;45700;50.930;5.168;2023-08-17T19:10:41;34.58;;;14.38;;
36575;SDS011;45700;50.930;5.168;2023-08-17T19:14:42;39.20;;;14.77;;
36575;SDS011;45700;50.930;5.168;2023-08-17T19:18:43;34.30;;;14.27;;
36575;SDS011;45700;50.930;5.168;2023-08-17T19:22:44;38.67;;;14.20;;
36575;SDS011;45700;50.930;5.168;2023-08-17T19:26:45;38.08;;;14.15;;
36575;SDS011;45700;50.930;5.168;2023-08-17T19:30:46;48.58;;;17.08;;
36575;SDS011;45700;50.930;5.168;2023-08-17T19:34:47;36.65;;;14.48;;
36575;SDS011;45700;50.930;5.168;2023-08-17T19:38:48;41.25;;;15.85;;
36575;SDS011;45700;50.930;5.168;2023-08-17T19:42:49;37.10;;;14.90;;
36575;SDS011;45700;50.930;5.168;2023-08-17T19:46:50;43.40;;;15.57;;
36575;SDS011;45700;50.930;5.168;2023-08-17T19:50:52;45.83;;;15.65;;
36575;SDS011;45700;50.930;5.168;2023-08-17T19:54:53;40.25;;;15.88;;
36575;SDS011;45700;50.930;5.168;2023-08-17T19:58:54;42.70;;;16.33;;
36575;SDS011;45700;50.930;5.168;2023-08-17T20:02:55;38.53;;;15.50;;
36575;SDS011;45700;50.930;5.168;2023-08-17T20:06:56;52.75;;;17.30;;
36575;SDS011;45700;50.930;5.168;2023-08-17T20:10:57;43.00;;;15.52;;
36575;SDS011;45700;50.930;5.168;2023-08-17T20:14:58;45.70;;;15.40;;
36575;SDS011;45700;50.930;5.168;2023-08-17T20:18:59;49.80;;;17.33;;
36575;SDS011;45700;50.930;5.168;2023-08-17T20:23:00;46.95;;;16.70;;
36575;SDS011;45700;50.930;5.168;2023-08-17T20:27:00;48.45;;;15.80;;
36575;SDS011;45700;50.930;5.168;2023-08-17T20:31:02;49.85;;;17.42;;
36575;SDS011;45700;50.930;5.168;2023-08-17T20:35:04;41.72;;;15.63;;
36575;SDS011;45700;50.930;5.168;2023-08-17T20:39:08;44.53;;;15.45;;
36575;SDS011;45700;50.930;5.168;2023-08-17T20:43:10;44.63;;;14.95;;
36575;SDS011;45700;50.930;5.168;2023-08-17T20:47:11;49.65;;;16.63;;
36575;SDS011;45700;50.930;5.168;2023-08-17T20:51:12;40.15;;;15.73;;
36575;SDS011;45700;50.930;5.168;2023-08-17T20:55:13;50.50;;;16.73;;
36575;SDS011;45700;50.930;5.168;2023-08-17T20:59:14;46.13;;;16.45;;
36575;SDS011;45700;50.930;5.168;2023-08-17T21:03:15;47.15;;;16.67;;
36575;SDS011;45700;50.930;5.168;2023-08-17T21:07:16;49.78;;;18.02;;
36575;SDS011;45700;50.930;5.168;2023-08-17T21:11:17;48.08;;;16.27;;
36575;SDS011;45700;50.930;5.168;2023-08-17T21:15:19;45.28;;;15.82;;
36575;SDS011;45700;50.930;5.168;2023-08-17T21:19:20;46.90;;;16.38;;
36575;SDS011;45700;50.930;5.168;2023-08-17T21:23:21;53.15;;;17.38;;
36575;SDS011;45700;50.930;5.168;2023-08-17T21:27:22;42.10;;;15.70;;
36575;SDS011;45700;50.930;5.168;2023-08-17T21:31:23;47.50;;;16.45;;
36575;SDS011;45700;50.930;5.168;2023-08-17T21:35:24;47.22;;;16.80;;
36575;SDS011;45700;50.930;5.168;2023-08-17T21:39:25;49.22;;;16.20;;
36575;SDS011;45700;50.930;5.168;2023-08-17T21:43:26;46.20;;;16.35;;
36575;SDS011;45700;50.930;5.168;2023-08-17T21:47:28;45.15;;;15.63;;
36575;SDS011;45700;50.930;5.168;2023-08-17T21:51:29;45.63;;;15.43;;
36575;SDS011;45700;50.930;5.168;2023-08-17T21:55:30;45.65;;;14.20;;
36575;SDS011;45700;50.930;5.168;2023-08-17T21:59:31;41.80;;;14.90;;
36575;SDS011;45700;50.930;5.168;2023-08-17T22:03:32;51.65;;;17.90;;
36575;SDS011;45700;50.930;5.168;2023-08-17T22:07:33;43.95;;;15.23;;
36575;SDS011;45700;50.930;5.168;2023-08-17T22:11:34;39.25;;;14.93;;
36575;SDS011;45700;50.930;5.168;2023-08-17T22:15:35;43.00;;;13.52;;
36575;SDS011;45700;50.930;5.168;2023-08-17T22:19:36;42.92;;;15.43;;
36575;SDS011;45700;50.930;5.168;2023-08-17T22:23:37;43.00;;;15.93;;
36575;SDS011;45700;50.930;5.168;2023-08-17T22:27:38;45.58;;;15.38;;
36575;SDS011;45700;50.930;5.168;2023-08-17T22:31:39;34.50;;;14.48;;
36575;SDS011;45700;50.930;5.168;2023-08-17T22:35:42;43.90;;;15.18;;
36575;SDS011;45700;50.930;5.168;2023-08-17T22:39:43;40.95;;;14.20;;
36575;SDS011;45700;50.930;5.168;2023-08-17T22:43:44;40.20;;;15.13;;
36575;SDS011;45700;50.930;5.168;2023-08-17T22:47:45;40.42;;;13.60;;
36575;SDS011;45700;50.930;5.168;2023-08-17T22:51:46;36.17;;;14.85;;
36575;SDS011;45700;50.930;5.168;2023-08-17T22:55:47;40.58;;;15.15;;
36575;SDS011;45700;50.930;5.168;2023-08-17T22:59:48;36.83;;;14.23;;
36575;SDS011;45700;50.930;5.168;2023-08-17T23:03:49;34.17;;;14.70;;
36575;SDS011;45700;50.930;5.168;2023-08-17T23:07:50;40.72;;;14.93;;
36575;SDS011;45700;50.930;5.168;2023-08-17T23:11:51;37.92;;;15.77;;
36575;SDS011;45700;50.930;5.168;2023-08-17T23:15:52;39.38;;;13.95;;
36575;SDS011;45700;50.930;5.168;2023-08-17T23:19:53;36.63;;;14.80;;
36575;SDS011;45700;50.930;5.168;2023-08-17T23:23:54;31.10;;;13.10;;
36575;SDS011;45700;50.930;5.168;2023-08-17T23:27:55;34.38;;;12.82;;
36575;SDS011;45700;50.930;5.168;2023-08-17T23:31:56;35.50;;;13.43;;
36575;SDS011;45700;50.930;5.168;2023-08-17T23:35:57;31.70;;;12.32;;
36575;SDS011;45700;50.930;5.168;2023-08-17T23:39:58;30.50;;;12.25;;
36575;SDS011;45700;50.930;5.168;2023-08-17T23:43:59;33.05;;;14.18;;
36575;SDS011;45700;50.930;5.168;2023-08-17T23:48:01;37.30;;;13.50;;
36575;SDS011;45700;50.930;5.168;2023-08-17T23:52:02;32.42;;;12.60;;
36575;SDS011;45700;50.930;5.168;2023-08-17T23:56:03;35.05;;;13.27;;
